Time;durP1;ratioP1;P1;durP2;ratioP2;P2;SDS_P1;SDS_P2;PMS_P1;PMS_P2;Temp;Humidity;BMP_temperature;BMP_pressure;BME280_temperature;BME280_humidity;BME280_pressure;Samples;Min_cycle;Max_cycle;Signal;HPM_P1;HPM_P2
2023/09/15 00:00:51;;;;;;;2.10;1.35;;;;;;;;;;4987767;28;20049;-59
2023/09/15 00:03:18;;;;;;;4.25;1.45;;;;;;;;;;4990501;28;20081;-59
2023/09/15 00:05:46;;;;;;;2.10;1.20;;;;;;;;;;4993190;28;20046;-59
2023/09/15 00:08:12;;;;;;;0.90;0.85;;;;;;;;;;4992621;28;20031;-59
2023/09/15 00:10:40;;;;;;;3.22;1.77;;;;;;;;;;4992949;28;20027;-59
2023/09/15 00:13:07;;;;;;;2.20;1.20;;;;;;;;;;4992622;28;20062;-59
2023/09/15 00:15:35;;;;;;;3.45;1.15;;;;;;;;;;4989667;28;20038;-59
2023/09/15 00:18:01;;;;;;;6.63;1.55;;;;;;;;;;4987524;28;20493;-59
2023/09/15 00:20:28;;;;;;;2.90;1.60;;;;;;;;;;4987324;28;20026;-58
2023/09/15 00:22:56;;;;;;;3.45;1.77;;;;;;;;;;4987601;28;20399;-59
2023/09/15 00:25:27;;;;;;;1.98;1.48;;;;;;;;;;4990065;28;20037;-59
2023/09/15 00:27:55;;;;;;;4.38;1.52;;;;;;;;;;4992793;28;20478;-59
2023/09/15 00:30:22;;;;;;;5.63;1.10;;;;;;;;;;4992362;28;20462;-59
2023/09/15 00:32:49;;;;;;;2.17;1.17;;;;;;;;;;4992096;28;20026;-60
2023/09/15 00:35:17;;;;;;;4.30;1.30;;;;;;;;;;4992499;28;20069;-59
2023/09/15 00:37:46;;;;;;;3.58;1.50;;;;;;;;;;4990065;28;20105;-59
2023/09/15 00:40:13;;;;;;;1.50;0.98;;;;;;;;;;4987386;28;20033;-59
2023/09/15 00:42:42;;;;;;;1.15;0.82;;;;;;;;;;4987323;28;20467;-59
2023/09/15 00:45:14;;;;;;;6.00;1.70;;;;;;;;;;4986876;28;20069;-59
2023/09/15 00:47:43;;;;;;;4.25;2.47;;;;;;;;;;4988618;28;20041;-59
2023/09/15 00:50:14;;;;;;;2.35;1.42;;;;;;;;;;4992420;28;20362;-59
2023/09/15 00:52:42;;;;;;;19.60;1.08;;;;;;;;;;4992497;28;20027;-59
2023/09/15 00:55:10;;;;;;;3.13;1.38;;;;;;;;;;4991504;28;20041;-59
2023/09/15 00:57:40;;;;;;;1.42;0.90;;;;;;;;;;4994301;28;20030;-59
2023/09/15 01:00:12;;;;;;;2.22;0.98;;;;;;;;;;4994128;28;20103;-59
2023/09/15 01:02:42;;;;;;;2.72;1.35;;;;;;;;;;4990941;28;20030;-60
2023/09/15 01:05:19;;;;;;;1.85;1.13;;;;;;;;;;4990879;28;20026;-58
2023/09/15 01:07:50;;;;;;;1.40;0.88;;;;;;;;;;4990956;28;20058;-60
2023/09/15 01:10:18;;;;;;;1.15;0.90;;;;;;;;;;4993151;28;20034;-61
2023/09/15 01:12:46;;;;;;;2.55;1.27;;;;;;;;;;4996281;28;20458;-60
2023/09/15 01:15:12;;;;;;;1.27;0.95;;;;;;;;;;4996118;28;20061;-61
2023/09/15 01:17:43;;;;;;;1.00;0.75;;;;;;;;;;4995526;28;20026;-60
2023/09/15 01:20:13;;;;;;;0.90;0.73;;;;;;;;;;4996022;28;20026;-61
2023/09/15 01:22:58;;;;;;;0.47;0.47;;;;;;;;;;4993131;28;20029;-60
2023/09/15 01:25:24;;;;;;;;;;;;;;;;;;4991264;28;20338;-62
2023/09/15 01:28:07;;;;;;;0.93;0.70;;;;;;;;;;4990839;28;19906;-61
2023/09/15 01:30:34;;;;;;;0.67;0.57;;;;;;;;;;4990339;28;20418;-58
2023/09/15 01:33:05;;;;;;;1.07;0.40;;;;;;;;;;4993177;28;20031;-58
2023/09/15 01:35:32;;;;;;;0.70;0.60;;;;;;;;;;4995573;28;20026;-59
2023/09/15 01:38:00;;;;;;;1.40;0.67;;;;;;;;;;4995454;28;20042;-59
2023/09/15 01:40:26;;;;;;;1.03;0.73;;;;;;;;;;4995095;28;20035;-59
2023/09/15 01:42:54;;;;;;;1.00;0.70;;;;;;;;;;4995599;28;20019;-59
2023/09/15 01:45:21;;;;;;;0.90;0.77;;;;;;;;;;4992860;28;20033;-60
2023/09/15 01:47:48;;;;;;;2.57;0.93;;;;;;;;;;4989914;28;20034;-59
2023/09/15 01:50:15;;;;;;;1.63;1.03;;;;;;;;;;4989893;28;20057;-58
2023/09/15 01:52:42;;;;;;;1.40;0.97;;;;;;;;;;4990147;28;20069;-58
2023/09/15 01:55:10;;;;;;;2.87;1.10;;;;;;;;;;4991902;28;20026;-59
2023/09/15 01:57:37;;;;;;;0.80;0.63;;;;;;;;;;4995414;28;20023;-58
2023/09/15 02:00:06;;;;;;;2.47;1.10;;;;;;;;;;4995136;28;20022;-59
2023/09/15 02:02:32;;;;;;;3.53;1.50;;;;;;;;;;4994567;28;20029;-59
2023/09/15 02:04:59;;;;;;;1.97;1.50;;;;;;;;;;4995330;28;20065;-58
2023/09/15 02:07:26;;;;;;;1.80;1.07;;;;;;;;;;4993116;28;20030;-58
2023/09/15 02:09:52;;;;;;;2.97;1.73;;;;;;;;;;4989565;28;20022;-58
2023/09/15 02:12:19;;;;;;;2.00;1.30;;;;;;;;;;4989590;28;20034;-60
2023/09/15 02:14:46;;;;;;;2.53;1.73;;;;;;;;;;4989871;28;20593;-59
2023/09/15 02:17:15;;;;;;;3.30;1.97;;;;;;;;;;4990584;28;20026;-59
2023/09/15 02:19:46;;;;;;;8.90;2.10;;;;;;;;;;4994848;28;20030;-58
2023/09/15 02:22:13;;;;;;;7.13;1.30;;;;;;;;;;4994902;28;20030;-58
2023/09/15 02:24:40;;;;;;;9.60;1.70;;;;;;;;;;4994512;28;20057;-58
2023/09/15 02:27:06;;;;;;;4.03;1.73;;;;;;;;;;4994447;28;20031;-58
2023/09/15 02:29:33;;;;;;;1.50;1.10;;;;;;;;;;4993709;28;20501;-58
2023/09/15 02:32:00;;;;;;;2.53;1.80;;;;;;;;;;4988763;28;20046;-59
2023/09/15 02:34:26;;;;;;;2.93;1.67;;;;;;;;;;4989251;28;20492;-58
2023/09/15 02:36:53;;;;;;;8.60;1.43;;;;;;;;;;4989801;28;20029;-58
2023/09/15 02:39:19;;;;;;;3.07;1.97;;;;;;;;;;4989473;28;20377;-58
2023/09/15 02:41:46;;;;;;;3.20;1.47;;;;;;;;;;4994593;28;20485;-59
2023/09/15 02:44:13;;;;;;;2.90;1.77;;;;;;;;;;4994093;28;20037;-59
2023/09/15 02:46:39;;;;;;;2.37;1.57;;;;;;;;;;4993762;28;20466;-59
2023/09/15 02:49:06;;;;;;;2.33;1.30;;;;;;;;;;4994258;28;20026;-59
2023/09/15 02:51:33;;;;;;;2.93;1.10;;;;;;;;;;4994092;28;20061;-58
2023/09/15 02:54:00;;;;;;;3.27;1.37;;;;;;;;;;4989021;28;20022;-58
2023/09/15 02:56:27;;;;;;;16.17;1.60;;;;;;;;;;4988783;28;20038;-59
2023/09/15 02:58:53;;;;;;;2.07;1.17;;;;;;;;;;4989235;28;20033;-58
2023/09/15 03:01:20;;;;;;;2.03;1.33;;;;;;;;;;4989034;28;20018;-58
2023/09/15 03:03:48;;;;;;;26.03;1.97;;;;;;;;;;4993045;28;20018;-58
2023/09/15 03:06:15;;;;;;;1.23;0.87;;;;;;;;;;4993845;28;20035;-58
2023/09/15 03:08:42;;;;;;;7.27;1.13;;;;;;;;;;4993990;28;20085;-58
2023/09/15 03:11:17;;;;;;;2.10;0.97;;;;;;;;;;4993863;28;20034;-58
2023/09/15 03:13:44;;;;;;;6.70;1.80;;;;;;;;;;4993612;28;20031;-58
2023/09/15 03:16:11;;;;;;;4.27;2.00;;;;;;;;;;4988664;28;20038;-59
2023/09/15 03:18:38;;;;;;;2.43;1.37;;;;;;;;;;4988725;28;20058;-59
2023/09/15 03:21:05;;;;;;;2.10;1.13;;;;;;;;;;4987738;28;20031;-58
2023/09/15 03:23:32;;;;;;;4.97;1.60;;;;;;;;;;4988404;28;20122;-58
2023/09/15 03:25:59;;;;;;;2.47;1.60;;;;;;;;;;4992200;28;20026;-58
2023/09/15 03:28:26;;;;;;;25.57;2.27;;;;;;;;;;4993845;28;20088;-58
2023/09/15 03:30:52;;;;;;;2.73;1.53;;;;;;;;;;4992590;28;20026;-59
2023/09/15 03:33:19;;;;;;;3.47;2.10;;;;;;;;;;4993248;28;20030;-58
2023/09/15 03:35:46;;;;;;;2.90;1.23;;;;;;;;;;4993408;28;20035;-58
2023/09/15 03:38:12;;;;;;;2.50;0.90;;;;;;;;;;4989190;28;20841;-58
2023/09/15 03:40:39;;;;;;;1.83;1.23;;;;;;;;;;4987161;28;20109;-58
2023/09/15 03:43:06;;;;;;;2.63;1.60;;;;;;;;;;4988148;28;20121;-57
2023/09/15 03:45:34;;;;;;;2.73;1.80;;;;;;;;;;4975850;28;20031;-59
2023/09/15 03:48:00;;;;;;;2.83;1.57;;;;;;;;;;4990906;28;20065;-59
2023/09/15 03:50:29;;;;;;;8.30;1.70;;;;;;;;;;4993296;28;20097;-58
2023/09/15 03:52:56;;;;;;;2.87;1.70;;;;;;;;;;4982884;28;20371;-57
2023/09/15 03:55:23;;;;;;;11.67;1.53;;;;;;;;;;4973634;28;20027;-58
2023/09/15 03:57:49;;;;;;;10.97;2.10;;;;;;;;;;4983442;28;20023;-58
2023/09/15 04:00:17;;;;;;;3.13;1.37;;;;;;;;;;4990102;28;20030;-57
2023/09/15 04:02:44;;;;;;;7.00;2.87;;;;;;;;;;4988075;28;20034;-58
2023/09/15 04:05:11;;;;;;;2.00;1.47;;;;;;;;;;4988053;28;20440;-58
2023/09/15 04:07:38;;;;;;;2.87;1.83;;;;;;;;;;4987852;28;20026;-59
2023/09/15 04:10:06;;;;;;;7.10;1.80;;;;;;;;;;4990007;28;20022;-58
2023/09/15 04:12:35;;;;;;;18.30;3.40;;;;;;;;;;4992158;28;20113;-57
2023/09/15 04:15:04;;;;;;;4.40;2.07;;;;;;;;;;4992427;28;20117;-57
2023/09/15 04:17:31;;;;;;;2.27;1.37;;;;;;;;;;4992594;28;20494;-57
2023/09/15 04:20:01;;;;;;;1.87;1.40;;;;;;;;;;4992590;28;20267;-57
2023/09/15 04:22:31;;;;;;;23.13;1.33;;;;;;;;;;4970946;28;20064;-57
2023/09/15 04:24:57;;;;;;;2.87;1.77;;;;;;;;;;4968493;28;20030;-57
2023/09/15 04:27:24;;;;;;;6.43;2.37;;;;;;;;;;4968476;28;20015;-57
2023/09/15 04:29:57;;;;;;;16.77;2.03;;;;;;;;;;4968152;28;20414;-57
2023/09/15 04:32:23;;;;;;;4.27;1.70;;;;;;;;;;4986986;28;20050;-57
2023/09/15 04:34:51;;;;;;;4.80;1.93;;;;;;;;;;4992449;28;20077;-57
2023/09/15 04:37:18;;;;;;;3.57;1.80;;;;;;;;;;4992393;28;20022;-57
2023/09/15 04:39:45;;;;;;;3.73;1.57;;;;;;;;;;4991961;28;20027;-57
2023/09/15 04:42:12;;;;;;;12.27;1.50;;;;;;;;;;4992642;28;20418;-57
2023/09/15 04:44:39;;;;;;;2.03;1.37;;;;;;;;;;4990348;28;20018;-57
2023/09/15 04:47:06;;;;;;;3.27;1.27;;;;;;;;;;4986458;28;20026;-57
2023/09/15 04:49:32;;;;;;;1.50;1.03;;;;;;;;;;4987473;28;20030;-56
2023/09/15 04:51:59;;;;;;;17.20;1.57;;;;;;;;;;4988508;28;20030;-56
2023/09/15 04:54:26;;;;;;;2.17;1.33;;;;;;;;;;5007921;28;20029;-57
2023/09/15 04:56:54;;;;;;;4.47;1.77;;;;;;;;;;4997630;28;20030;-56
2023/09/15 04:59:20;;;;;;;1.30;1.00;;;;;;;;;;4992654;28;20496;-56
2023/09/15 05:01:48;;;;;;;15.30;2.20;;;;;;;;;;4991750;28;20544;-56
2023/09/15 05:04:15;;;;;;;10.10;1.83;;;;;;;;;;4992370;28;20033;-57
2023/09/15 05:06:42;;;;;;;3.43;1.73;;;;;;;;;;4991132;28;20489;-56
2023/09/15 05:09:11;;;;;;;2.53;1.10;;;;;;;;;;4987260;28;20034;-56
2023/09/15 05:11:38;;;;;;;2.07;1.40;;;;;;;;;;4987474;28;20114;-56
2023/09/15 05:14:06;;;;;;;1.03;0.90;;;;;;;;;;4987281;28;20136;-57
2023/09/15 05:16:33;;;;;;;1.73;1.40;;;;;;;;;;4986935;28;20382;-57
2023/09/15 05:19:00;;;;;;;3.77;1.40;;;;;;;;;;4992065;28;20466;-57
2023/09/15 05:21:26;;;;;;;2.83;1.60;;;;;;;;;;4992295;28;20106;-57
2023/09/15 05:23:53;;;;;;;9.47;1.23;;;;;;;;;;4991861;28;20032;-57
2023/09/15 05:26:20;;;;;;;6.27;1.20;;;;;;;;;;4992310;28;20037;-57
2023/09/15 05:28:46;;;;;;;1.90;1.20;;;;;;;;;;4991855;28;20072;-56
2023/09/15 05:31:13;;;;;;;1.43;1.13;;;;;;;;;;4986965;28;20126;-57
2023/09/15 05:33:40;;;;;;;2.07;1.43;;;;;;;;;;4987177;28;20030;-56
2023/09/15 05:36:07;;;;;;;2.70;1.37;;;;;;;;;;4987178;28;20351;-57
2023/09/15 05:38:33;;;;;;;2.17;1.43;;;;;;;;;;4985744;28;20124;-57
2023/09/15 05:41:00;;;;;;;1.43;1.03;;;;;;;;;;4991245;28;20029;-57
2023/09/15 05:43:27;;;;;;;1.37;1.00;;;;;;;;;;4993320;28;20369;-57
2023/09/15 05:45:55;;;;;;;3.17;1.33;;;;;;;;;;4995460;28;20537;-57
2023/09/15 05:48:23;;;;;;;2.87;1.60;;;;;;;;;;4995385;28;20081;-57
2023/09/15 05:50:53;;;;;;;0.73;0.73;;;;;;;;;;4995492;28;20420;-56
2023/09/15 05:53:20;;;;;;;4.17;1.40;;;;;;;;;;4990515;28;20551;-57
2023/09/15 05:55:47;;;;;;;1.70;1.10;;;;;;;;;;4990354;28;20042;-57
2023/09/15 05:58:14;;;;;;;1.70;1.20;;;;;;;;;;4990299;28;20388;-56
2023/09/15 06:00:43;;;;;;;6.70;1.37;;;;;;;;;;4989572;28;20085;-58
2023/09/15 06:03:10;;;;;;;1.97;1.10;;;;;;;;;;4993835;28;20062;-57
2023/09/15 06:05:36;;;;;;;1.70;1.40;;;;;;;;;;4994996;28;20034;-57
2023/09/15 06:08:06;;;;;;;2.03;1.27;;;;;;;;;;4994897;28;20033;-56
2023/09/15 06:10:33;;;;;;;5.33;1.93;;;;;;;;;;4995154;28;20105;-57
2023/09/15 06:12:59;;;;;;;2.27;1.40;;;;;;;;;;4995368;28;20030;-57
2023/09/15 06:15:26;;;;;;;12.03;2.07;;;;;;;;;;4991045;28;20041;-57
2023/09/15 06:17:53;;;;;;;5.33;1.37;;;;;;;;;;4989928;28;20105;-57
2023/09/15 06:20:19;;;;;;;7.67;1.80;;;;;;;;;;4989980;28;20058;-57
2023/09/15 06:22:46;;;;;;;1.70;1.37;;;;;;;;;;4989669;28;20037;-57
2023/09/15 06:25:12;;;;;;;3.37;1.67;;;;;;;;;;4992481;28;20466;-57
2023/09/15 06:27:39;;;;;;;1.37;1.17;;;;;;;;;;4994853;28;20022;-57
2023/09/15 06:30:06;;;;;;;6.33;2.07;;;;;;;;;;4994627;28;20033;-57
2023/09/15 06:32:33;;;;;;;8.83;1.63;;;;;;;;;;4994520;28;20030;-57
2023/09/15 06:34:59;;;;;;;8.97;1.80;;;;;;;;;;4994900;28;20120;-57
2023/09/15 06:37:26;;;;;;;1.93;1.30;;;;;;;;;;4992141;28;20029;-58
2023/09/15 06:39:53;;;;;;;2.73;1.70;;;;;;;;;;4989548;28;20030;-57
2023/09/15 06:42:19;;;;;;;2.33;1.60;;;;;;;;;;4989131;28;20030;-56
2023/09/15 06:44:46;;;;;;;2.43;1.43;;;;;;;;;;4989521;28;20511;-57
2023/09/15 06:47:12;;;;;;;1.50;1.27;;;;;;;;;;4991147;28;20044;-57
2023/09/15 06:49:39;;;;;;;3.40;1.90;;;;;;;;;;4994558;28;20058;-56
2023/09/15 06:52:06;;;;;;;6.17;2.47;;;;;;;;;;4994079;28;20489;-57
2023/09/15 06:54:33;;;;;;;3.67;2.53;;;;;;;;;;4993047;28;20030;-57
2023/09/15 06:57:00;;;;;;;3.20;1.80;;;;;;;;;;4994306;28;20026;-57
2023/09/15 06:59:26;;;;;;;3.20;2.23;;;;;;;;;;4992176;28;20049;-56
2023/09/15 07:01:53;;;;;;;5.03;3.57;;;;;;;;;;4987196;28;20022;-56
2023/09/15 07:04:20;;;;;;;6.47;3.07;;;;;;;;;;4987727;28;20026;-57
2023/09/15 07:06:46;;;;;;;5.40;2.33;;;;;;;;;;4987525;28;20389;-56
2023/09/15 07:09:13;;;;;;;2.60;1.43;;;;;;;;;;4987946;28;20027;-57
2023/09/15 07:11:39;;;;;;;16.57;2.10;;;;;;;;;;4992064;28;20433;-56
2023/09/15 07:14:06;;;;;;;2.40;1.83;;;;;;;;;;4991984;28;20076;-57
2023/09/15 07:16:33;;;;;;;3.43;2.40;;;;;;;;;;4993500;28;20037;-57
2023/09/15 07:19:00;;;;;;;6.20;2.07;;;;;;;;;;4993550;28;20041;-57
2023/09/15 07:21:26;;;;;;;4.80;2.10;;;;;;;;;;4992633;28;20120;-58
2023/09/15 07:23:54;;;;;;;5.80;1.37;;;;;;;;;;4988519;28;20516;-56
2023/09/15 07:26:24;;;;;;;2.83;1.60;;;;;;;;;;4988543;28;20449;-56
2023/09/15 07:28:51;;;;;;;3.27;2.10;;;;;;;;;;4988377;28;20121;-56
2023/09/15 07:31:19;;;;;;;2.27;1.47;;;;;;;;;;4988406;28;20038;-57
2023/09/15 07:33:46;;;;;;;3.70;2.13;;;;;;;;;;4993575;28;20034;-56
2023/09/15 07:36:13;;;;;;;2.90;1.67;;;;;;;;;;4993572;28;20035;-57
2023/09/15 07:38:40;;;;;;;2.73;1.93;;;;;;;;;;4992706;28;20034;-57
2023/09/15 07:41:07;;;;;;;4.00;2.37;;;;;;;;;;4993344;28;20446;-57
2023/09/15 07:43:33;;;;;;;2.57;1.63;;;;;;;;;;4993196;28;20030;-56
2023/09/15 07:46:00;;;;;;;2.03;1.53;;;;;;;;;;4987986;28;20023;-56
2023/09/15 07:48:29;;;;;;;10.60;1.73;;;;;;;;;;4988218;28;20027;-58
2023/09/15 07:50:56;;;;;;;2.33;1.77;;;;;;;;;;4988149;28;20137;-56
2023/09/15 07:53:23;;;;;;;4.17;2.03;;;;;;;;;;4988078;28;20027;-56
2023/09/15 07:55:49;;;;;;;4.23;2.53;;;;;;;;;;4992573;28;20031;-57
2023/09/15 07:58:16;;;;;;;1.87;1.43;;;;;;;;;;4992566;28;20018;-56
2023/09/15 08:00:43;;;;;;;3.40;1.73;;;;;;;;;;4993091;28;20018;-56
2023/09/15 08:03:10;;;;;;;4.10;1.80;;;;;;;;;;4993095;28;20030;-56
2023/09/15 08:05:36;;;;;;;3.03;2.10;;;;;;;;;;4992730;28;20109;-57
2023/09/15 08:08:03;;;;;;;10.30;2.33;;;;;;;;;;4988303;28;20033;-56
2023/09/15 08:10:30;;;;;;;2.23;1.60;;;;;;;;;;4987908;28;20393;-56
2023/09/15 08:12:56;;;;;;;4.50;1.63;;;;;;;;;;4987995;28;20038;-56
2023/09/15 08:15:23;;;;;;;2.90;1.97;;;;;;;;;;4987503;28;20031;-56
2023/09/15 08:17:50;;;;;;;5.40;2.23;;;;;;;;;;4991029;28;20030;-56
2023/09/15 08:20:17;;;;;;;3.50;2.17;;;;;;;;;;4992849;28;20390;-56
2023/09/15 08:22:44;;;;;;;1.67;1.07;;;;;;;;;;4992843;28;20034;-56
2023/09/15 08:25:11;;;;;;;5.13;2.03;;;;;;;;;;4992944;28;20113;-56
2023/09/15 08:27:38;;;;;;;3.23;1.67;;;;;;;;;;4992621;28;20470;-56
2023/09/15 08:30:08;;;;;;;6.53;2.47;;;;;;;;;;4988859;28;20054;-56
2023/09/15 08:32:34;;;;;;;2.83;1.80;;;;;;;;;;4987690;28;20085;-56
2023/09/15 08:35:01;;;;;;;3.67;1.93;;;;;;;;;;4987203;28;20043;-56
2023/09/15 08:37:28;;;;;;;3.30;2.07;;;;;;;;;;4987426;28;20029;-57
2023/09/15 08:39:54;;;;;;;1.87;1.37;;;;;;;;;;4990115;28;20042;-57
2023/09/15 08:42:22;;;;;;;5.73;2.07;;;;;;;;;;4992620;28;20022;-57
2023/09/15 08:44:50;;;;;;;2.63;1.50;;;;;;;;;;4992646;28;20432;-56
2023/09/15 08:47:18;;;;;;;2.50;1.47;;;;;;;;;;4992477;28;20437;-57
2023/09/15 08:49:45;;;;;;;3.83;2.13;;;;;;;;;;4992333;28;20018;-57
2023/09/15 08:52:15;;;;;;;2.17;1.40;;;;;;;;;;4989491;28;20050;-56
2023/09/15 08:54:42;;;;;;;1.83;1.33;;;;;;;;;;4986914;28;20417;-56
2023/09/15 08:57:09;;;;;;;2.27;1.67;;;;;;;;;;4987292;28;20030;-56
2023/09/15 08:59:37;;;;;;;1.93;1.47;;;;;;;;;;4987265;28;20080;-56
2023/09/15 09:02:04;;;;;;;1.87;1.07;;;;;;;;;;4989399;28;20172;-56
2023/09/15 09:04:31;;;;;;;1.67;1.27;;;;;;;;;;4992347;28;20109;-56
2023/09/15 09:06:59;;;;;;;2.63;1.53;;;;;;;;;;4992543;28;20019;-56
2023/09/15 09:09:26;;;;;;;2.23;1.73;;;;;;;;;;4992033;28;20019;-56
2023/09/15 09:11:53;;;;;;;1.63;1.40;;;;;;;;;;4992262;28;20434;-56
2023/09/15 09:14:19;;;;;;;2.07;1.47;;;;;;;;;;4990072;28;20088;-56
2023/09/15 09:16:47;;;;;;;1.70;1.30;;;;;;;;;;4987010;28;20042;-55
2023/09/15 09:19:14;;;;;;;4.23;2.20;;;;;;;;;;4989613;28;20105;-57
2023/09/15 09:21:40;;;;;;;1.40;1.10;;;;;;;;;;4990964;28;20517;-56
2023/09/15 09:24:09;;;;;;;15.00;2.17;;;;;;;;;;4992204;28;20374;-56
2023/09/15 09:26:35;;;;;;;3.17;2.20;;;;;;;;;;4995774;28;20031;-56
2023/09/15 09:29:02;;;;;;;1.73;1.30;;;;;;;;;;4995471;28;20377;-57
2023/09/15 09:31:29;;;;;;;2.73;2.07;;;;;;;;;;4995931;28;20075;-56
2023/09/15 09:33:59;;;;;;;3.10;1.53;;;;;;;;;;4995738;28;20034;-56
2023/09/15 09:36:26;;;;;;;2.60;1.77;;;;;;;;;;4994436;28;20088;-56
2023/09/15 09:38:55;;;;;;;2.27;1.70;;;;;;;;;;4990588;28;20498;-56
2023/09/15 09:41:24;;;;;;;2.80;1.43;;;;;;;;;;4990907;28;20043;-56
2023/09/15 09:43:51;;;;;;;2.20;1.50;;;;;;;;;;4990161;28;20034;-56
2023/09/15 09:46:22;;;;;;;2.03;1.40;;;;;;;;;;4990684;28;20375;-56
2023/09/15 09:48:50;;;;;;;2.67;2.00;;;;;;;;;;4995675;28;20037;-56
2023/09/15 09:51:18;;;;;;;2.60;1.70;;;;;;;;;;4995435;28;20023;-56
2023/09/15 09:53:45;;;;;;;2.63;1.80;;;;;;;;;;4995663;28;20497;-56
2023/09/15 09:56:11;;;;;;;8.43;2.27;;;;;;;;;;4995063;28;20070;-56
2023/09/15 09:58:38;;;;;;;2.83;2.03;;;;;;;;;;4994304;28;20061;-57
2023/09/15 10:01:09;;;;;;;2.40;1.53;;;;;;;;;;4990253;28;20443;-56
2023/09/15 10:03:36;;;;;;;2.13;1.27;;;;;;;;;;4990076;28;20030;-55
2023/09/15 10:06:06;;;;;;;2.70;1.67;;;;;;;;;;4990046;28;20034;-56
2023/09/15 10:08:33;;;;;;;2.40;1.33;;;;;;;;;;4990336;28;20038;-56
2023/09/15 10:11:00;;;;;;;2.33;1.47;;;;;;;;;;4995058;28;20023;-56
2023/09/15 10:13:27;;;;;;;2.47;1.37;;;;;;;;;;4995135;28;20026;-56
2023/09/15 10:15:54;;;;;;;2.50;1.40;;;;;;;;;;4994733;28;20509;-56
2023/09/15 10:18:21;;;;;;;1.40;1.20;;;;;;;;;;4994789;28;20485;-56
2023/09/15 10:20:53;;;;;;;0.93;0.83;;;;;;;;;;4994485;28;20025;-57
2023/09/15 10:23:20;;;;;;;2.33;1.50;;;;;;;;;;4989797;28;20542;-56
2023/09/15 10:25:54;;;;;;;2.07;1.60;;;;;;;;;;4989823;28;20039;-56
2023/09/15 10:28:22;;;;;;;0.87;0.87;;;;;;;;;;4989551;28;20058;-56
2023/09/15 10:30:54;;;;;;;2.43;1.20;;;;;;;;;;4989540;28;20038;-56
2023/09/15 10:33:26;;;;;;;1.23;0.90;;;;;;;;;;4994377;28;20038;-56
2023/09/15 10:35:53;;;;;;;1.80;1.47;;;;;;;;;;4994403;28;20041;-56
2023/09/15 10:38:28;;;;;;;2.20;1.73;;;;;;;;;;4994731;28;20026;-56
2023/09/15 10:41:00;;;;;;;1.80;1.30;;;;;;;;;;4994686;28;20035;-55
2023/09/15 10:43:28;;;;;;;2.27;1.60;;;;;;;;;;4993213;28;20054;-56
2023/09/15 10:45:58;;;;;;;1.57;1.20;;;;;;;;;;4989133;28;20528;-56
2023/09/15 10:48:37;;;;;;;4.00;1.23;;;;;;;;;;4989504;28;20032;-55
2023/09/15 10:51:08;;;;;;;1.80;1.20;;;;;;;;;;4989233;28;20509;-56
2023/09/15 10:53:49;;;;;;;1.80;1.27;;;;;;;;;;4989694;28;20386;-56
2023/09/15 10:56:19;;;;;;;1.73;1.33;;;;;;;;;;4993958;28;20030;-56
2023/09/15 10:58:47;;;;;;;2.70;1.57;;;;;;;;;;4994182;28;20084;-56
2023/09/15 11:01:18;;;;;;;2.43;1.40;;;;;;;;;;4993799;28;20026;-56
2023/09/15 11:03:45;;;;;;;2.77;1.10;;;;;;;;;;4994245;28;20484;-56
2023/09/15 11:06:13;;;;;;;1.87;1.50;;;;;;;;;;4992564;28;20069;-56
2023/09/15 11:08:40;;;;;;;1.93;1.33;;;;;;;;;;4988710;28;20571;-56
2023/09/15 11:11:09;;;;;;;2.60;1.43;;;;;;;;;;4988786;28;20030;-56
2023/09/15 11:13:37;;;;;;;1.67;1.23;;;;;;;;;;4988675;28;20046;-56
2023/09/15 11:16:04;;;;;;;3.70;0.97;;;;;;;;;;4989636;28;20490;-56
2023/09/15 11:18:35;;;;;;;3.07;1.77;;;;;;;;;;4993923;28;20054;-56
2023/09/15 11:21:06;;;;;;;11.20;1.80;;;;;;;;;;4993879;28;20015;-56
2023/09/15 11:23:33;;;;;;;4.63;2.13;;;;;;;;;;4993579;28;20037;-56
2023/09/15 11:26:04;;;;;;;3.40;1.30;;;;;;;;;;4993626;28;20537;-56
2023/09/15 11:28:34;;;;;;;1.10;0.90;;;;;;;;;;4992215;28;20030;-56
2023/09/15 11:31:03;;;;;;;3.37;1.37;;;;;;;;;;4988400;28;20445;-55
2023/09/15 11:33:30;;;;;;;2.27;1.60;;;;;;;;;;4988237;28;20068;-56
2023/09/15 11:35:58;;;;;;;1.33;1.03;;;;;;;;;;4988424;28;20030;-56
2023/09/15 11:38:25;;;;;;;3.17;1.77;;;;;;;;;;4989208;28;20050;-56
2023/09/15 11:40:53;;;;;;;1.77;1.27;;;;;;;;;;4993178;28;20482;-56
2023/09/15 11:43:23;;;;;;;11.97;1.73;;;;;;;;;;4992991;28;20026;-56
2023/09/15 11:45:50;;;;;;;1.80;1.30;;;;;;;;;;4993390;28;20482;-56
2023/09/15 11:48:18;;;;;;;2.43;1.87;;;;;;;;;;4993507;28;20053;-56
2023/09/15 11:50:46;;;;;;;2.63;1.40;;;;;;;;;;4992160;28;20382;-56
2023/09/15 11:53:13;;;;;;;6.77;1.90;;;;;;;;;;4987691;28;20030;-56
2023/09/15 11:55:40;;;;;;;2.17;1.73;;;;;;;;;;4988089;28;20437;-56
2023/09/15 11:58:07;;;;;;;3.17;1.93;;;;;;;;;;4987699;28;20080;-56
2023/09/15 12:00:37;;;;;;;2.57;1.70;;;;;;;;;;4988000;28;20080;-56
2023/09/15 12:03:06;;;;;;;2.93;1.97;;;;;;;;;;4992884;28;20037;-56
2023/09/15 12:05:33;;;;;;;3.80;1.43;;;;;;;;;;4993053;28;20041;-56
2023/09/15 12:08:00;;;;;;;2.33;1.67;;;;;;;;;;4993061;28;20022;-56
2023/09/15 12:10:30;;;;;;;3.70;2.20;;;;;;;;;;4992966;28;20500;-56
2023/09/15 12:12:57;;;;;;;4.07;1.90;;;;;;;;;;4992270;28;20026;-56
2023/09/15 12:15:25;;;;;;;1.80;1.30;;;;;;;;;;4987430;28;20049;-56
2023/09/15 12:17:52;;;;;;;1.63;1.33;;;;;;;;;;4987531;28;20421;-58
2023/09/15 12:20:23;;;;;;;1.90;1.40;;;;;;;;;;4987826;28;20484;-58
2023/09/15 12:22:52;;;;;;;6.30;1.87;;;;;;;;;;4987723;28;20506;-55
2023/09/15 12:25:18;;;;;;;4.90;2.17;;;;;;;;;;4992771;28;20030;-55
2023/09/15 12:27:46;;;;;;;4.80;1.43;;;;;;;;;;4992626;28;20504;-55
2023/09/15 12:30:14;;;;;;;2.97;2.00;;;;;;;;;;4992638;28;20545;-55
2023/09/15 12:32:41;;;;;;;3.17;2.10;;;;;;;;;;4992572;28;20045;-56
2023/09/15 12:35:12;;;;;;;5.00;3.10;;;;;;;;;;4992361;28;20029;-56
2023/09/15 12:37:45;;;;;;;2.03;1.60;;;;;;;;;;4987389;28;20030;-55
2023/09/15 12:40:12;;;;;;;7.03;2.07;;;;;;;;;;4987627;28;20030;-55
2023/09/15 12:42:39;;;;;;;4.37;1.87;;;;;;;;;;4987397;28;20121;-55
2023/09/15 12:45:09;;;;;;;6.33;2.43;;;;;;;;;;4987546;28;20114;-55
2023/09/15 12:47:36;;;;;;;10.27;2.40;;;;;;;;;;4992476;28;20035;-55
2023/09/15 12:50:05;;;;;;;4.90;2.47;;;;;;;;;;4992526;28;20022;-56
2023/09/15 12:52:32;;;;;;;3.87;2.20;;;;;;;;;;4992154;28;20039;-56
2023/09/15 12:54:59;;;;;;;4.37;2.20;;;;;;;;;;4996406;28;20022;-56
2023/09/15 12:57:26;;;;;;;1.97;1.27;;;;;;;;;;4996419;28;20097;-55
2023/09/15 12:59:52;;;;;;;5.23;2.03;;;;;;;;;;4991505;28;20049;-56
2023/09/15 13:02:19;;;;;;;4.83;2.33;;;;;;;;;;4991195;28;20034;-56
2023/09/15 13:04:46;;;;;;;2.17;1.60;;;;;;;;;;4991077;28;20117;-55
2023/09/15 13:07:13;;;;;;;2.87;2.20;;;;;;;;;;4991183;28;20033;-56
2023/09/15 13:09:39;;;;;;;2.80;1.70;;;;;;;;;;4995217;28;20026;-56
2023/09/15 13:12:06;;;;;;;5.20;2.13;;;;;;;;;;4995957;28;20026;-55
2023/09/15 13:14:34;;;;;;;11.67;2.23;;;;;;;;;;4996310;28;20450;-56
2023/09/15 13:17:00;;;;;;;3.23;2.40;;;;;;;;;;4996007;28;20077;-56
2023/09/15 13:19:27;;;;;;;2.50;1.90;;;;;;;;;;4996061;28;20061;-55
2023/09/15 13:21:54;;;;;;;15.23;2.67;;;;;;;;;;4991274;28;20053;-56
2023/09/15 13:24:23;;;;;;;6.77;2.33;;;;;;;;;;4991116;28;20049;-56
2023/09/15 13:26:52;;;;;;;9.30;1.47;;;;;;;;;;4990597;28;20041;-56
2023/09/15 13:29:18;;;;;;;10.30;2.20;;;;;;;;;;4990597;28;20138;-56
2023/09/15 13:31:45;;;;;;;2.80;2.03;;;;;;;;;;4993921;28;20038;-56
2023/09/15 13:34:12;;;;;;;10.73;1.87;;;;;;;;;;4995746;28;20033;-56
2023/09/15 13:36:38;;;;;;;3.90;2.00;;;;;;;;;;4995785;28;20049;-56
2023/09/15 13:39:08;;;;;;;9.70;2.50;;;;;;;;;;4995406;28;20034;-56
2023/09/15 13:41:35;;;;;;;4.60;2.90;;;;;;;;;;4995189;28;20038;-56
2023/09/15 13:44:03;;;;;;;3.67;1.83;;;;;;;;;;4991674;28;20043;-55
2023/09/15 13:46:30;;;;;;;5.83;2.07;;;;;;;;;;4990579;28;20030;-55
2023/09/15 13:49:00;;;;;;;4.07;1.87;;;;;;;;;;4990412;28;20030;-56
2023/09/15 13:51:28;;;;;;;5.07;2.30;;;;;;;;;;4989981;28;20073;-56
2023/09/15 13:53:55;;;;;;;3.87;1.73;;;;;;;;;;4992732;28;20045;-57
2023/09/15 13:56:21;;;;;;;2.93;1.80;;;;;;;;;;4994497;28;20068;-57
2023/09/15 13:58:48;;;;;;;2.63;1.77;;;;;;;;;;4995120;28;20065;-56
2023/09/15 14:01:14;;;;;;;3.20;1.60;;;;;;;;;;4995335;28;20172;-57
2023/09/15 14:03:44;;;;;;;4.10;2.07;;;;;;;;;;4994367;28;20068;-56
2023/09/15 14:06:14;;;;;;;2.63;1.30;;;;;;;;;;4992017;28;20493;-56
2023/09/15 14:08:41;;;;;;;4.20;1.57;;;;;;;;;;4988822;28;20455;-57
2023/09/15 14:11:08;;;;;;;2.13;1.63;;;;;;;;;;4988628;28;20042;-57
2023/09/15 14:13:35;;;;;;;2.17;1.43;;;;;;;;;;4989524;28;20056;-56
2023/09/15 14:16:02;;;;;;;2.93;1.37;;;;;;;;;;4992312;28;20381;-56
2023/09/15 14:18:29;;;;;;;1.87;1.07;;;;;;;;;;4983898;28;20066;-57
2023/09/15 14:20:57;;;;;;;0.93;0.87;;;;;;;;;;4976204;28;20030;-57
2023/09/15 14:23:26;;;;;;;2.43;0.83;;;;;;;;;;4995049;28;20045;-56
2023/09/15 14:25:53;;;;;;;6.27;1.43;;;;;;;;;;4994327;28;20102;-57
2023/09/15 14:28:19;;;;;;;5.37;1.63;;;;;;;;;;4992361;28;20474;-57
2023/09/15 14:30:52;;;;;;;1.50;0.93;;;;;;;;;;4989064;28;20397;-57
2023/09/15 14:33:19;;;;;;;5.40;1.83;;;;;;;;;;4988857;28;20421;-57
2023/09/15 14:35:46;;;;;;;2.37;1.33;;;;;;;;;;4988541;28;20035;-57
2023/09/15 14:38:13;;;;;;;2.60;1.87;;;;;;;;;;4989489;28;20037;-57
2023/09/15 14:40:40;;;;;;;1.53;1.20;;;;;;;;;;4993218;28;20037;-57
2023/09/15 14:43:06;;;;;;;2.00;1.37;;;;;;;;;;4993124;28;20011;-57
2023/09/15 14:45:33;;;;;;;1.70;1.20;;;;;;;;;;4993736;28;20522;-57